This is the latest recevied weather packets stored in our database for station/object OE3CJB-13. If no packets are shown the sender has not sent any weather packets the latest 10 day(s).
| Time | Temp. | Humidity | Pressure | Rain* | Wind** | Luminosity | Snow |
|---|---|---|---|---|---|---|---|
| 1777794328 | 16.11° C | 38% | 767.9 hPa | 0 mm | - | - | - |
| 1777793416 | 15.56° C | 39% | 768.7 hPa | 0 mm | - | - | - |
| 1777792551 | 15° C | 40% | 767.1 hPa | 0 mm | - | - | - |
| 1777791642 | 14.44° C | 42% | 765.6 hPa | 0 mm | - | - | - |
| 1777790826 | 13.89° C | 42% | 764 hPa | 0 mm | - | - | - |
| 1777789816 | 13.33° C | 43% | 764 hPa | 0 mm | - | - | - |
| 1777788952 | 12.78° C | 44% | 762.4 hPa | 0 mm | - | - | - |
| 1777788042 | 12.22° C | 55% | 764 hPa | 0 mm | - | - | - |
| 1777787128 | 10° C | 62% | 763.2 hPa | 0 mm | - | - | - |
| 1777786216 | 9.44° C | 67% | 763.2 hPa | 0 mm | - | - | - |
| 1777785352 | 7.78° C | 69% | 764 hPa | 0 mm | - | - | - |
| 1777784491 | 6.67° C | 71% | 761.7 hPa | 0 mm | - | - | - |
| 1777783528 | 6.11° C | 71% | 756.9 hPa | 0 mm | - | - | - |
| 1777782616 | 5.56° C | 71% | 754.6 hPa | 0 mm | - | - | - |
| 1777781752 | 5.56° C | 71% | 753.2 hPa | 0 mm | - | - | - |
| 1777780890 | 5.56° C | 70% | 753.1 hPa | 0 mm | - | - | - |
| 1777779927 | 5.56° C | 69% | 753.8 hPa | 0 mm | - | - | - |
| 1777779015 | 5.56° C | 69% | 754.6 hPa | 0 mm | - | - | - |
| 1777778200 | 5.56° C | 69% | 755.3 hPa | 0 mm | - | - | - |
| 1777777448 | 5.56° C | 68% | 756 hPa | 0 mm | - | - | - |
| 1777776328 | 6.11° C | 68% | 756.8 hPa | 0 mm | - | - | - |
| 1777775465 | 6.11° C | 68% | 756.1 hPa | 0 mm | - | - | - |
| 1777774551 | 6.11° C | 67% | 758.4 hPa | 0 mm | - | - | - |
| 1777773642 | 6.67° C | 67% | 759.3 hPa | 0 mm | - | - | - |
| 1777772775 | 6.67° C | 67% | 760 hPa | 0 mm | - | - | - |
* Rain latest hour (hover to see other rain measurements)
** Current wind speed in m/s (hover to see current wind gust speed)